Time;durP1;ratioP1;P1;durP2;ratioP2;P2;SDS_P1;SDS_P2;PMS_P1;PMS_P2;Temp;Humidity;BMP_temperature;BMP_pressure;BME280_temperature;BME280_humidity;BME280_pressure;Samples;Min_cycle;Max_cycle;Signal;HPM_P1;HPM_P2
2022/12/27 00:00:50;;;;;;;;;;;;;;;2.90;93.44;102125.25;5094044;28;19916;-56
2022/12/27 00:03:16;;;;;;;;;;;;;;;2.89;93.18;102134.03;5096072;28;19916;-57
2022/12/27 00:05:42;;;;;;;;;;;;;;;2.88;93.26;102137.56;5084750;28;19912;-59
2022/12/27 00:08:07;;;;;;;;;;;;;;;2.90;93.50;102141.00;5086565;28;19919;-56
2022/12/27 00:10:32;;;;;;;;;;;;;;;2.92;93.61;102141.75;5089920;28;20382;-57
2022/12/27 00:12:57;;;;;;;;;;;;;;;2.90;93.69;102139.22;5081847;28;19916;-59
2022/12/27 00:15:25;;;;;;;;;;;;;;;2.92;93.75;102147.84;5088236;28;20356;-59
2022/12/27 00:17:50;;;;;;;;;;;;;;;2.94;93.62;102147.75;5081140;28;19972;-60
2022/12/27 00:20:16;;;;;;;;;;;;;;;2.93;93.60;102152.16;5087864;28;20536;-56
2022/12/27 00:22:41;;;;;;;;;;;;;;;2.92;93.79;102147.00;5078437;28;19916;-59
2022/12/27 00:25:06;;;;;;;;;;;;;;;2.92;93.60;102157.50;5090871;28;19986;-56
2022/12/27 00:27:32;;;;;;;;;;;;;;;2.90;93.75;102151.47;5080489;28;19920;-57
2022/12/27 00:29:57;;;;;;;;;;;;;;;2.89;93.80;102153.25;5089561;28;19912;-60
2022/12/27 00:32:22;;;;;;;;;;;;;;;2.90;93.84;102159.34;5091745;28;20357;-57
2022/12/27 00:34:47;;;;;;;;;;;;;;;2.89;94.08;102155.00;5077909;28;19919;-60
2022/12/27 00:37:12;;;;;;;;;;;;;;;2.87;94.05;102162.13;5084640;28;19920;-59
2022/12/27 00:39:37;;;;;;;;;;;;;;;2.85;94.23;102154.34;5082777;28;19918;-59
2022/12/27 00:42:02;;;;;;;;;;;;;;;2.83;94.38;102150.13;5082671;28;19947;-54
2022/12/27 00:44:28;;;;;;;;;;;;;;;2.84;94.30;102162.31;5082160;28;19912;-60
2022/12/27 00:46:53;;;;;;;;;;;;;;;2.80;94.17;102161.63;5088213;28;19991;-56
2022/12/27 00:49:18;;;;;;;;;;;;;;;2.77;94.68;102160.03;5082064;28;19917;-57
2022/12/27 00:51:43;;;;;;;;;;;;;;;2.74;94.72;102165.47;5085188;28;19912;-59
2022/12/27 00:54:08;;;;;;;;;;;;;;;2.74;94.47;102162.84;5087479;28;20007;-57
2022/12/27 00:56:34;;;;;;;;;;;;;;;2.73;94.69;102165.56;5098779;28;19912;-60
2022/12/27 00:59:00;;;;;;;;;;;;;;;2.72;94.87;102172.59;5092800;28;20007;-57
2022/12/27 01:01:27;;;;;;;;;;;;;;;2.71;95.12;102168.25;5083737;28;19920;-59
2022/12/27 01:03:52;;;;;;;;;;;;;;;2.71;95.20;102170.03;5088777;28;20011;-59
2022/12/27 01:06:20;;;;;;;;;;;;;;;2.71;95.14;102167.41;5086041;28;19987;-57
2022/12/27 01:08:45;;;;;;;;;;;;;;;2.72;95.41;102175.19;5089346;28;19912;-56
2022/12/27 01:11:11;;;;;;;;;;;;;;;2.73;95.47;102176.03;5082942;28;19923;-59
2022/12/27 01:13:37;;;;;;;;;;;;;;;2.73;95.39;102179.50;5087682;28;19916;-56
2022/12/27 01:16:07;;;;;;;;;;;;;;;2.75;95.35;102185.53;5088575;28;20042;-54
2022/12/27 01:18:32;;;;;;;;;;;;;;;2.74;95.21;102178.56;5086559;28;20003;-57
2022/12/27 01:20:57;;;;;;;;;;;;;;;2.75;95.54;102180.28;5077917;28;20053;-60
2022/12/27 01:23:22;;;;;;;;;;;;;;;2.73;95.50;102183.91;5085481;28;19912;-58
2022/12/27 01:25:47;;;;;;;;;;;;;;;2.73;95.49;102195.25;5084101;28;19991;-55
2022/12/27 01:28:13;;;;;;;;;;;;;;;2.71;95.53;102185.78;5083210;28;19912;-58
2022/12/27 01:30:38;;;;;;;;;;;;;;;2.72;95.48;102190.09;5096795;28;19994;-56
2022/12/27 01:33:03;;;;;;;;;;;;;;;2.72;95.56;102200.59;5090818;28;20383;-57
2022/12/27 01:35:28;;;;;;;;;;;;;;;2.71;95.53;102197.13;5085477;28;19977;-59
2022/12/27 01:37:53;;;;;;;;;;;;;;;2.73;95.77;102208.38;5083691;28;20332;-57
2022/12/27 01:40:18;;;;;;;;;;;;;;;2.74;95.82;102215.31;5090319;28;19916;-57
2022/12/27 01:42:54;;;;;;;;;;;;;;;2.75;95.72;102216.16;5082159;28;19999;-57
2022/12/27 01:45:22;;;;;;;;;;;;;;;2.77;96.02;102220.38;5086067;28;19916;-56
2022/12/27 01:47:56;;;;;;;;;;;;;;;2.78;96.07;102222.06;5086587;28;19938;-58
2022/12/27 01:50:30;;;;;;;;;;;;;;;2.79;95.88;102222.91;5083098;28;19912;-57
2022/12/27 01:53:11;;;;;;;;;;;;;;;2.75;96.01;102227.47;5083832;28;19917;-57
2022/12/27 01:55:57;;;;;;;;;;;;;;;2.75;96.23;102231.88;5084041;28;19935;-58
2022/12/27 01:58:41;;;;;;;;;;;;;;;2.75;96.30;102227.47;5087840;28;19912;-56
2022/12/27 02:01:09;;;;;;;;;;;;;;;2.80;96.35;102229.84;5087428;28;19920;-55
2022/12/27 02:03:38;;;;;;;;;;;;;;;2.85;96.70;102224.34;5085154;28;19935;-57
2022/12/27 02:06:04;;;;;;;;;;;;;;;2.88;96.83;102218.91;5087890;28;19920;-57
2022/12/27 02:08:29;;;;;;;;;;;;;;;2.89;96.50;102231.97;5083126;28;19916;-57
2022/12/27 02:10:55;;;;;;;;;;;;;;;2.90;96.63;102243.31;5082828;28;19935;-59
2022/12/27 02:13:21;;;;;;;;;;;;;;;2.91;96.88;102237.13;5086496;28;19919;-58
2022/12/27 02:15:46;;;;;;;;;;;;;;;2.96;96.88;102237.72;5079861;28;20379;-59
2022/12/27 02:18:12;;;;;;;;;;;;;;;3.01;97.07;102238.28;5090647;28;19961;-59
2022/12/27 02:20:49;;;;;;;;;;;;;;;3.06;97.03;102236.25;5085355;28;19929;-57
2022/12/27 02:26:24;;;;;;;;;;;;;;;3.09;97.13;102241.31;5089432;28;20307;-58
2022/12/27 02:28:49;;;;;;;;;;;;;;;3.08;97.01;102240.47;5082449;28;19916;-57
2022/12/27 02:31:21;;;;;;;;;;;;;;;3.06;96.86;102242.34;5083438;28;19919;-58
2022/12/27 02:33:50;;;;;;;;;;;;;;;3.06;97.07;102244.13;5077676;28;20415;-58
2022/12/27 02:36:21;;;;;;;;;;;;;;;3.04;96.91;102244.19;5088045;28;20010;-57
2022/12/27 02:38:48;;;;;;;;;;;;;;;3.00;97.25;102245.31;5081548;28;19916;-58
2022/12/27 02:55:28;;;;;;;;;;;;;;;3.06;98.00;102257.25;5083895;28;19922;-60
2022/12/27 02:58:26;;;;;;;;;;;;;;;3.09;98.12;102263.16;5097835;28;19958;-55
2022/12/27 03:04:15;;;;;;;;;;;;;;;3.10;98.05;102258.75;5079174;28;20031;-56
2022/12/27 03:06:46;;;;;;;;;;;;;;;3.09;98.22;102263.16;5076839;28;19916;-57
2022/12/27 03:17:52;;;;;;;;;;;;;;;2.99;98.55;102255.91;5082035;28;19934;-58
2022/12/27 03:25:48;;;;;;;;;;;;;;;2.95;98.88;102255.22;5086581;28;19918;-57
2022/12/27 03:33:47;;;;;;;;;;;;;;;2.96;99.35;102266.56;5092007;28;19973;-60
2022/12/27 03:39:08;;;;;;;;;;;;;;;2.98;99.57;102285.69;5087269;28;19965;-63
2022/12/27 03:44:23;;;;;;;;;;;;;;;3.02;99.65;102284.59;5082888;28;19918;-57
2022/12/27 03:46:54;;;;;;;;;;;;;;;3.10;99.91;102291.09;5083876;28;19966;-56
2022/12/27 03:49:23;;;;;;;;;;;;;;;3.14;99.95;102280.41;5082310;28;19927;-59
2022/12/27 03:51:52;;;;;;;;;;;;;;;3.21;99.94;102274.75;5084901;28;19923;-57
2022/12/27 03:54:32;;;;;;;;;;;;;;;3.24;99.66;102282.44;5084362;28;19928;-56
2022/12/27 03:56:59;;;;;;;;;;;;;;;3.26;99.73;102285.81;5094880;28;19935;-59
2022/12/27 03:59:25;;;;;;;;;;;;;;;3.34;100.00;102275.72;5079626;28;19916;-57
2022/12/27 04:01:50;;;;;;;;;;;;;;;3.42;100.00;102276.13;5083259;28;19920;-57
2022/12/27 04:04:15;;;;;;;;;;;;;;;3.48;100.00;102268.84;5082463;28;19928;-60
2022/12/27 04:06:40;;;;;;;;;;;;;;;3.48;100.00;102274.94;5077543;28;20004;-60
2022/12/27 04:36:24;;;;;;;;;;;;;;;3.13;100.00;102310.22;5082187;28;19965;-57
2022/12/27 04:38:50;;;;;;;;;;;;;;;3.10;100.00;102316.50;5087514;28;20006;-58
2022/12/27 04:55:04;;;;;;;;;;;;;;;2.95;100.00;102310.34;5080566;28;20288;-57
2022/12/27 04:57:29;;;;;;;;;;;;;;;2.96;100.00;102308.56;5083895;28;19912;-55
2022/12/27 05:02:39;;;;;;;;;;;;;;;2.96;100.00;102322.53;5078864;28;19939;-58
2022/12/27 05:05:04;;;;;;;;;;;;;;;2.96;100.00;102322.53;5081513;28;20338;-58
2022/12/27 05:15:41;;;;;;;;;;;;;;;3.06;100.00;102326.31;5072945;28;19966;-57
2022/12/27 05:18:06;;;;;;;;;;;;;;;3.07;100.00;102314.88;5087110;28;19920;-60
2022/12/27 05:20:34;;;;;;;;;;;;;;;3.08;100.00;102320.97;5082610;28;20311;-56
2022/12/27 05:25:44;;;;;;;;;;;;;;;3.08;100.00;102315.72;5087319;28;19920;-59
2022/12/27 05:28:10;;;;;;;;;;;;;;;3.04;100.00;102325.56;5091334;28;20335;-59
2022/12/27 05:30:36;;;;;;;;;;;;;;;3.02;100.00;102339.69;5084605;28;19919;-57
2022/12/27 05:33:02;;;;;;;;;;;;;;;2.99;100.00;102324.97;5081230;28;19912;-59
2022/12/27 05:35:27;;;;;;;;;;;;;;;2.96;100.00;102333.00;5081944;28;19920;-57
2022/12/27 05:37:54;;;;;;;;;;;;;;;2.93;100.00;102330.56;5081649;28;20317;-56
2022/12/27 05:40:19;;;;;;;;;;;;;;;2.93;100.00;102338.44;5083403;28;19919;-59
2022/12/27 05:42:44;;;;;;;;;;;;;;;2.88;100.00;102348.31;5078703;28;19916;-56
2022/12/27 05:45:09;;;;;;;;;;;;;;;2.87;100.00;102346.63;5084810;28;19916;-59
2022/12/27 05:47:34;;;;;;;;;;;;;;;2.87;100.00;102359.75;5085453;28;20368;-57
2022/12/27 05:49:59;;;;;;;;;;;;;;;2.85;100.00;102364.22;5081491;28;20019;-57
2022/12/27 05:52:25;;;;;;;;;;;;;;;2.89;100.00;102362.28;5083850;28;19912;-55
2022/12/27 05:54:50;;;;;;;;;;;;;;;2.89;100.00;102360.53;5075128;28;19956;-57
2022/12/27 05:57:15;;;;;;;;;;;;;;;2.91;100.00;102378.81;5083072;28;19912;-56
2022/12/27 05:59:40;;;;;;;;;;;;;;;2.96;100.00;102364.50;5081334;28;19958;-57
2022/12/27 06:02:05;;;;;;;;;;;;;;;3.02;100.00;102365.94;5083223;28;19929;-58
2022/12/27 06:04:30;;;;;;;;;;;;;;;3.11;100.00;102366.28;5079010;28;19951;-56
2022/12/27 06:06:58;;;;;;;;;;;;;;;3.20;100.00;102369.34;5082222;28;20538;-58
2022/12/27 06:09:23;;;;;;;;;;;;;;;3.27;100.00;102347.91;5078264;28;19916;-57
2022/12/27 06:11:48;;;;;;;;;;;;;;;3.33;100.00;102355.44;5078090;28;20025;-59
2022/12/27 06:14:13;;;;;;;;;;;;;;;3.41;100.00;102368.97;5077643;28;19947;-58
2022/12/27 06:16:38;;;;;;;;;;;;;;;3.45;100.00;102356.50;5082797;28;19916;-56
2022/12/27 06:19:03;;;;;;;;;;;;;;;3.45;100.00;102353.88;5085448;28;19912;-60
2022/12/27 06:21:29;;;;;;;;;;;;;;;3.43;100.00;102356.59;5095963;28;19915;-58
2022/12/27 06:23:54;;;;;;;;;;;;;;;3.35;100.00;102357.97;5088967;28;20367;-56
2022/12/27 06:26:20;;;;;;;;;;;;;;;3.33;100.00;102367.72;5087138;28;19952;-58
2022/12/27 06:28:48;;;;;;;;;;;;;;;3.29;100.00;102377.53;5080582;28;20491;-58
2022/12/27 06:31:13;;;;;;;;;;;;;;;3.27;100.00;102376.78;5088459;28;20008;-58
2022/12/27 06:33:38;;;;;;;;;;;;;;;3.24;100.00;102386.59;5071135;28;20047;-59
2022/12/27 06:36:10;;;;;;;;;;;;;;;3.18;100.00;102392.16;5085636;28;19973;-60
2022/12/27 06:38:36;;;;;;;;;;;;;;;3.12;100.00;102390.75;5085597;28;20269;-56
2022/12/27 06:41:02;;;;;;;;;;;;;;;3.09;100.00;102385.66;5092454;28;19994;-58
2022/12/27 06:43:27;;;;;;;;;;;;;;;3.06;100.00;102383.22;5088679;28;19912;-56
2022/12/27 06:45:59;;;;;;;;;;;;;;;3.02;100.00;102397.44;5083038;28;19920;-58
2022/12/27 06:48:25;;;;;;;;;;;;;;;2.97;100.00;102386.34;5093355;28;19913;-56
2022/12/27 06:50:50;;;;;;;;;;;;;;;2.93;100.00;102384.81;5092456;28;19923;-57
2022/12/27 06:53:15;;;;;;;;;;;;;;;2.87;100.00;102395.63;5087349;28;19947;-59
2022/12/27 06:55:40;;;;;;;;;;;;;;;2.80;100.00;102385.47;5089392;28;20383;-58
2022/12/27 06:58:06;;;;;;;;;;;;;;;2.77;100.00;102383.00;5087324;28;19922;-56
2022/12/27 07:00:31;;;;;;;;;;;;;;;2.74;100.00;102387.56;5086078;28;20482;-57
2022/12/27 07:02:56;;;;;;;;;;;;;;;2.71;100.00;102377.25;5090772;28;20061;-57
2022/12/27 07:05:21;;;;;;;;;;;;;;;2.68;100.00;102385.28;5100010;28;19922;-60
2022/12/27 07:07:46;;;;;;;;;;;;;;;2.64;100.00;102392.47;5078748;28;20013;-57
2022/12/27 07:10:11;;;;;;;;;;;;;;;2.62;100.00;102399.59;5083016;28;19912;-58
2022/12/27 07:12:37;;;;;;;;;;;;;;;2.59;100.00;102399.72;5084325;28;19990;-59
2022/12/27 07:15:03;;;;;;;;;;;;;;;2.57;100.00;102403.34;5081726;28;20015;-58
2022/12/27 07:17:28;;;;;;;;;;;;;;;2.50;100.00;102400.22;5085676;28;19916;-56
2022/12/27 07:19:53;;;;;;;;;;;;;;;2.43;100.00;102402.31;5088169;28;19919;-59
2022/12/27 07:22:18;;;;;;;;;;;;;;;2.36;100.00;102400.09;5084896;28;19959;-56
2022/12/27 07:24:44;;;;;;;;;;;;;;;2.30;100.00;102411.72;5082640;28;19947;-57
2022/12/27 07:27:09;;;;;;;;;;;;;;;2.25;100.00;102420.75;5083627;28;19919;-56
2022/12/27 07:29:34;;;;;;;;;;;;;;;2.20;100.00;102418.34;5082321;28;19912;-58
2022/12/27 07:31:59;;;;;;;;;;;;;;;2.16;100.00;102416.81;5082102;28;19920;-57
2022/12/27 07:34:24;;;;;;;;;;;;;;;2.16;100.00;102408.97;5074116;28;19957;-57
2022/12/27 07:36:50;;;;;;;;;;;;;;;2.16;100.00;102420.28;5083370;28;20506;-56
2022/12/27 07:39:16;;;;;;;;;;;;;;;2.17;100.00;102414.13;5086475;28;19920;-60
2022/12/27 07:41:41;;;;;;;;;;;;;;;2.19;100.00;102421.91;5088690;28;19947;-53
2022/12/27 07:44:08;;;;;;;;;;;;;;;2.20;100.00;102423.59;5085461;28;19961;-57
2022/12/27 07:46:33;;;;;;;;;;;;;;;2.20;100.00;102420.13;5081352;28;19922;-54
2022/12/27 07:48:59;;;;;;;;;;;;;;;2.19;100.00;102421.91;5076838;28;20384;-58
2022/12/27 07:51:25;;;;;;;;;;;;;;;2.16;100.00;102422.91;5079461;28;19915;-54
2022/12/27 07:53:50;;;;;;;;;;;;;;;2.15;100.00;102423.84;5074833;28;19912;-55
2022/12/27 07:56:17;;;;;;;;;;;;;;;2.13;100.00;102417.81;5082197;28;20382;-55
2022/12/27 07:58:44;;;;;;;;;;;;;;;2.09;100.00;102424.16;5070522;28;19920;-59
2022/12/27 08:01:10;;;;;;;;;;;;;;;2.11;100.00;102434.56;5072330;28;20494;-58
2022/12/27 08:03:35;;;;;;;;;;;;;;;2.12;100.00;102428.38;5073605;28;20291;-59
2022/12/27 08:06:00;;;;;;;;;;;;;;;2.12;100.00;102434.47;5078845;28;19916;-57
2022/12/27 08:08:36;;;;;;;;;;;;;;;2.12;100.00;102431.00;5077424;28;19958;-56
2022/12/27 08:11:01;;;;;;;;;;;;;;;2.15;100.00;102446.56;5078769;28;19955;-58
2022/12/27 08:13:26;;;;;;;;;;;;;;;2.16;100.00;102443.03;5080812;28;20028;-55
2022/12/27 08:15:52;;;;;;;;;;;;;;;2.21;100.00;102450.66;5076507;28;19940;-58
2022/12/27 08:18:17;;;;;;;;;;;;;;;2.23;100.00;102444.41;5081679;28;19919;-56
2022/12/27 08:20:42;;;;;;;;;;;;;;;2.26;100.00;102449.50;5084068;28;20422;-56
2022/12/27 08:23:07;;;;;;;;;;;;;;;2.27;100.00;102455.59;5088130;28;19916;-59
2022/12/27 08:25:32;;;;;;;;;;;;;;;2.31;100.00;102447.47;5077474;28;19916;-58
2022/12/27 08:28:01;;;;;;;;;;;;;;;2.34;100.00;102457.84;5081061;28;19916;-55
2022/12/27 08:30:27;;;;;;;;;;;;;;;2.37;100.00;102464.69;5083243;28;19919;-55
2022/12/27 08:32:52;;;;;;;;;;;;;;;2.41;100.00;102463.63;5072988;28;19913;-56
2022/12/27 08:35:17;;;;;;;;;;;;;;;2.44;100.00;102468.69;5081415;28;20620;-56
2022/12/27 08:37:42;;;;;;;;;;;;;;;2.49;100.00;102466.69;5081570;28;19913;-57
2022/12/27 08:40:08;;;;;;;;;;;;;;;2.50;100.00;102463.13;5076213;28;21450;-58
2022/12/27 08:42:33;;;;;;;;;;;;;;;2.52;100.00;102461.28;5075858;28;19923;-56
2022/12/27 08:44:58;;;;;;;;;;;;;;;2.53;100.00;102457.72;5077859;28;20023;-57
2022/12/27 08:47:23;;;;;;;;;;;;;;;2.59;100.00;102451.31;5103285;28;20326;-57
2022/12/27 08:49:48;;;;;;;;;;;;;;;2.64;100.00;102449.31;5086267;28;19955;-56
2022/12/27 08:52:13;;;;;;;;;;;;;;;2.67;100.00;102451.78;5092258;28;19973;-55
2022/12/27 08:54:38;;;;;;;;;;;;;;;2.70;100.00;102457.72;5083293;28;19912;-59
2022/12/27 08:57:04;;;;;;;;;;;;;;;2.73;100.00;102454.94;5086291;28;19969;-56
2022/12/27 08:59:29;;;;;;;;;;;;;;;2.79;100.00;102444.09;5087477;28;19912;-56
2022/12/27 09:01:54;;;;;;;;;;;;;;;2.85;100.00;102442.09;5082536;28;20053;-59
2022/12/27 09:04:20;;;;;;;;;;;;;;;2.87;100.00;102442.84;5089017;28;19916;-60
2022/12/27 09:06:45;;;;;;;;;;;;;;;2.91;100.00;102437.38;5080895;28;19916;-56
2022/12/27 09:09:10;;;;;;;;;;;;;;;2.96;100.00;102440.59;5089964;28;19963;-57
2022/12/27 09:11:35;;;;;;;;;;;;;;;2.99;100.00;102444.84;5091620;28;19923;-56
2022/12/27 09:14:02;;;;;;;;;;;;;;;3.03;100.00;102444.59;5086157;28;19916;-59
2022/12/27 09:16:28;;;;;;;;;;;;;;;3.04;100.00;102448.06;5091446;28;20295;-59
2022/12/27 09:18:54;;;;;;;;;;;;;;;3.06;100.00;102459.31;5087755;28;19920;-58
2022/12/27 09:21:21;;;;;;;;;;;;;;;3.08;100.00;102458.31;5079862;28;19920;-56
2022/12/27 09:23:46;;;;;;;;;;;;;;;3.10;100.00;102458.22;5080359;28;19912;-57
2022/12/27 09:26:13;;;;;;;;;;;;;;;3.13;100.00;102455.44;5089686;28;19919;-58
2022/12/27 09:28:38;;;;;;;;;;;;;;;3.15;100.00;102464.06;5087917;28;19913;-58
2022/12/27 09:31:04;;;;;;;;;;;;;;;3.19;100.00;102465.63;5087616;28;19912;-57
2022/12/27 09:33:29;;;;;;;;;;;;;;;3.24;100.00;102466.22;5091017;28;20669;-60
2022/12/27 09:36:21;;;;;;;;;;;;;;;3.27;100.00;102465.19;5088899;28;19955;-55
2022/12/27 09:38:46;;;;;;;;;;;;;;;3.32;100.00;102464.00;5085688;28;19919;-57
2022/12/27 09:41:26;;;;;;;;;;;;;;;3.36;100.00;102470.78;5083279;28;19916;-56
2022/12/27 09:43:57;;;;;;;;;;;;;;;3.41;100.00;102466.13;5086273;28;19939;-59
2022/12/27 09:46:28;;;;;;;;;;;;;;;3.46;100.00;102478.16;5085551;28;19912;-59
2022/12/27 09:48:54;;;;;;;;;;;;;;;3.49;100.00;102481.47;5085159;28;19919;-59
2022/12/27 09:51:30;;;;;;;;;;;;;;;3.53;100.00;102477.75;5087910;28;19912;-59
2022/12/27 09:54:03;;;;;;;;;;;;;;;3.59;100.00;102481.81;5082651;28;20376;-57
2022/12/27 09:56:29;;;;;;;;;;;;;;;3.63;100.00;102465.78;5088249;28;19994;-56
2022/12/27 09:59:03;;;;;;;;;;;;;;;3.68;100.00;102468.16;5083282;28;20341;-59
2022/12/27 10:01:33;;;;;;;;;;;;;;;3.73;100.00;102476.63;5082453;28;19924;-58
2022/12/27 10:03:59;;;;;;;;;;;;;;;3.78;100.00;102461.47;5099161;28;20032;-56
2022/12/27 10:06:43;;;;;;;;;;;;;;;3.83;100.00;102464.66;5090983;28;19934;-60
2022/12/27 10:09:26;;;;;;;;;;;;;;;3.89;100.00;102472.19;5085879;28;19923;-60
2022/12/27 10:11:59;;;;;;;;;;;;;;;3.94;100.00;102472.78;5090875;28;19916;-57
2022/12/27 10:14:31;;;;;;;;;;;;;;;4.01;100.00;102479.38;5085666;28;19923;-57
2022/12/27 10:16:56;;;;;;;;;;;;;;;4.07;100.00;102487.88;5090423;28;19919;-59
2022/12/27 10:19:24;;;;;;;;;;;;;;;4.13;100.00;102484.88;5091827;28;19916;-60
2022/12/27 10:22:09;;;;;;;;;;;;;;;4.18;100.00;102477.56;5101627;28;19916;-57
2022/12/27 10:24:38;;;;;;;;;;;;;;;4.23;100.00;102483.41;5085496;28;20497;-58
2022/12/27 10:27:09;;;;;;;;;;;;;;;4.28;100.00;102481.34;5085182;28;19920;-59
2022/12/27 10:29:35;;;;;;;;;;;;;;;4.32;100.00;102470.56;5096505;28;20493;-58
2022/12/27 10:32:01;;;;;;;;;;;;;;;4.40;100.00;102482.44;5081512;28;20437;-59
2022/12/27 10:34:26;;;;;;;;;;;;;;;4.49;100.00;102484.50;5080496;28;19912;-58
2022/12/27 10:36:51;;;;;;;;;;;;;;;4.55;100.00;102470.97;5076282;28;19913;-58
2022/12/27 10:39:18;;;;;;;;;;;;;;;4.61;100.00;102478.50;5102832;28;19958;-60
2022/12/27 10:41:53;;;;;;;;;;;;;;;4.70;100.00;102479.75;5074206;28;19924;-60
2022/12/27 10:44:18;;;;;;;;;;;;;;;4.79;100.00;102484.47;5083002;28;19917;-56
2022/12/27 10:46:47;;;;;;;;;;;;;;;4.81;100.00;102472.06;5083583;28;20288;-60
2022/12/27 10:49:21;;;;;;;;;;;;;;;4.90;100.00;102482.84;5087804;28;19946;-57
2022/12/27 10:51:48;;;;;;;;;;;;;;;4.97;100.00;102489.47;5100459;28;19965;-55
2022/12/27 10:54:27;;;;;;;;;;;;;;;5.06;100.00;102485.41;5089162;28;19912;-57
2022/12/27 10:56:52;;;;;;;;;;;;;;;5.14;100.00;102495.47;5081546;28;20322;-57
2022/12/27 10:59:19;;;;;;;;;;;;;;;5.18;100.00;102491.69;5079301;28;19950;-56
2022/12/27 11:01:45;;;;;;;;;;;;;;;5.19;100.00;102490.75;5078908;28;20437;-59
2022/12/27 11:04:10;;;;;;;;;;;;;;;5.16;100.00;102488.31;5086333;28;19916;-59
2022/12/27 11:06:36;;;;;;;;;;;;;;;5.12;100.00;102482.38;5081950;28;19920;-58
2022/12/27 11:09:24;;;;;;;;;;;;;;;5.11;100.00;102485.13;5086351;28;19958;-59
2022/12/27 11:11:50;;;;;;;;;;;;;;;5.07;100.00;102475.72;5094970;28;20014;-58
2022/12/27 11:14:16;;;;;;;;;;;;;;;5.05;100.00;102467.06;5091419;28;20000;-57
2022/12/27 11:16:42;;;;;;;;;;;;;;;5.04;100.00;102473.28;5083579;28;19916;-58
2022/12/27 11:19:18;;;;;;;;;;;;;;;5.04;99.88;102463.59;5084870;28;20398;-57
2022/12/27 11:21:43;;;;;;;;;;;;;;;5.05;99.99;102467.91;5084042;28;20047;-60
2022/12/27 11:24:12;;;;;;;;;;;;;;;5.06;99.88;102464.34;5088515;28;19995;-57
2022/12/27 11:26:49;;;;;;;;;;;;;;;5.08;99.92;102466.88;5086094;28;20362;-60
2022/12/27 11:29:17;;;;;;;;;;;;;;;5.11;100.00;102462.28;5078782;28;19976;-55
2022/12/27 11:31:47;;;;;;;;;;;;;;;5.13;99.88;102455.13;5079720;28;19923;-60
2022/12/27 11:34:23;;;;;;;;;;;;;;;5.17;99.90;102458.41;5073308;28;19962;-58
2022/12/27 11:36:51;;;;;;;;;;;;;;;5.19;99.75;102461.78;5083059;28;19912;-57
2022/12/27 11:39:35;;;;;;;;;;;;;;;5.20;99.72;102460.84;5086049;28;20299;-59
2022/12/27 11:42:01;;;;;;;;;;;;;;;5.22;100.00;102466.88;5080659;28;19920;-58
2022/12/27 11:44:30;;;;;;;;;;;;;;;5.22;99.62;102459.84;5082125;28;20384;-57
2022/12/27 11:46:58;;;;;;;;;;;;;;;5.22;99.81;102464.25;5086629;28;20002;-56
2022/12/27 11:49:27;;;;;;;;;;;;;;;5.22;99.66;102444.03;5082191;28;20006;-57
2022/12/27 11:52:10;;;;;;;;;;;;;;;5.23;99.76;102440.44;5083158;28;20358;-58
2022/12/27 11:54:38;;;;;;;;;;;;;;;5.22;99.34;102436.13;5072467;28;19912;-58
2022/12/27 11:57:09;;;;;;;;;;;;;;;5.22;99.35;102432.66;5078527;28;19928;-56
2022/12/27 11:59:58;;;;;;;;;;;;;;;5.21;99.41;102431.81;5070691;28;19924;-57
2022/12/27 12:02:31;;;;;;;;;;;;;;;5.23;99.57;102439.59;5071439;28;19930;-58
2022/12/27 12:05:05;;;;;;;;;;;;;;;5.22;99.47;102430.00;5081848;28;19923;-57
2022/12/27 12:07:48;;;;;;;;;;;;;;;5.22;99.25;102427.38;5075376;28;19935;-56
2022/12/27 12:10:23;;;;;;;;;;;;;;;5.25;99.48;102428.03;5075497;28;20538;-58
2022/12/27 12:12:51;;;;;;;;;;;;;;;5.28;99.11;102422.56;5072057;28;19924;-57
2022/12/27 12:15:43;;;;;;;;;;;;;;;5.32;99.52;102425.84;5075411;28;19920;-56
2022/12/27 12:18:24;;;;;;;;;;;;;;;5.37;99.42;102422.91;5078254;28;20311;-58
2022/12/27 12:21:08;;;;;;;;;;;;;;;5.40;99.31;102415.66;5086359;28;19924;-57
2022/12/27 12:23:57;;;;;;;;;;;;;;;5.45;98.87;102418.00;5086267;28;19973;-54
2022/12/27 12:26:24;;;;;;;;;;;;;;;5.47;98.78;102416.09;5081976;28;19923;-60
2022/12/27 12:29:13;;;;;;;;;;;;;;;5.49;98.50;102420.34;5086287;28;19916;-59
2022/12/27 12:31:48;;;;;;;;;;;;;;;5.58;98.77;102418.91;5078766;28;20026;-58
2022/12/27 12:34:13;;;;;;;;;;;;;;;5.63;98.37;102419.44;5085874;28;19920;-60
2022/12/27 12:36:38;;;;;;;;;;;;;;;5.69;98.32;102413.78;5080798;28;19919;-58
2022/12/27 12:39:14;;;;;;;;;;;;;;;5.80;98.52;102400.75;5089506;28;20023;-61
2022/12/27 12:42:04;;;;;;;;;;;;;;;5.95;98.36;102395.44;5074460;28;19916;-59
2022/12/27 12:44:29;;;;;;;;;;;;;;;6.16;98.20;102388.72;5082329;28;20291;-58
2022/12/27 12:46:59;;;;;;;;;;;;;;;6.29;97.84;102389.56;5086152;28;20455;-57
2022/12/27 12:49:24;;;;;;;;;;;;;;;6.39;97.22;102388.00;5087874;28;19966;-58
2022/12/27 12:52:08;;;;;;;;;;;;;;;6.51;96.96;102386.28;5099139;28;20360;-58
2022/12/27 12:54:52;;;;;;;;;;;;;;;6.64;96.00;102381.00;5087677;28;19913;-56
2022/12/27 12:57:23;;;;;;;;;;;;;;;6.74;95.56;102374.97;5079453;28;19913;-58
2022/12/27 12:59:48;;;;;;;;;;;;;;;6.77;95.41;102366.84;5080541;28;20006;-60
2022/12/27 13:02:32;;;;;;;;;;;;;;;6.81;94.56;102364.81;5087316;28;20428;-60
2022/12/27 13:05:00;;;;;;;;;;;;;;;6.84;94.45;102360.16;5084056;28;20027;-58
2022/12/27 13:07:39;;;;;;;;;;;;;;;6.87;94.02;102360.91;5086197;28;20003;-60
2022/12/27 13:10:23;;;;;;;;;;;;;;;6.90;93.88;102356.25;5081348;28;20299;-59
2022/12/27 13:13:06;;;;;;;;;;;;;;;6.98;93.53;102340.72;5083717;28;19912;-57
2022/12/27 13:15:50;;;;;;;;;;;;;;;7.07;93.27;102333.91;5093754;28;19999;-58
2022/12/27 13:18:34;;;;;;;;;;;;;;;7.05;92.74;102335.81;5080510;28;20300;-57
2022/12/27 13:21:07;;;;;;;;;;;;;;;7.01;92.27;102332.56;5089338;28;20006;-60
2022/12/27 13:23:43;;;;;;;;;;;;;;;6.99;92.08;102331.84;5099721;28;20371;-59
2022/12/27 13:26:08;;;;;;;;;;;;;;;7.03;92.25;102330.66;5080381;28;20412;-57
2022/12/27 13:28:41;;;;;;;;;;;;;;;7.06;91.76;102322.50;5084290;28;20408;-60
2022/12/27 13:31:25;;;;;;;;;;;;;;;7.17;91.59;102327.00;5096334;28;19925;-57
2022/12/27 13:34:01;;;;;;;;;;;;;;;7.32;91.31;102323.25;5075058;28;19978;-57
2022/12/27 13:36:36;;;;;;;;;;;;;;;7.34;90.87;102304.63;5089579;28;19923;-57
2022/12/27 13:39:12;;;;;;;;;;;;;;;7.31;90.68;102302.22;5091033;28;19920;-57
2022/12/27 13:41:48;;;;;;;;;;;;;;;7.27;89.95;102293.69;5080570;28;19955;-60
2022/12/27 13:44:13;;;;;;;;;;;;;;;7.16;89.64;102290.97;5076892;28;19916;-59
2022/12/27 13:46:52;;;;;;;;;;;;;;;7.15;90.13;102299.84;5082852;28;20483;-59
2022/12/27 13:49:33;;;;;;;;;;;;;;;7.15;90.28;102294.56;5082612;28;19920;-59
2022/12/27 13:52:10;;;;;;;;;;;;;;;7.08;90.13;102288.91;5082795;28;20342;-59
2022/12/27 13:54:43;;;;;;;;;;;;;;;6.99;90.29;102294.84;5072935;28;19936;-59
2022/12/27 13:57:29;;;;;;;;;;;;;;;6.88;90.40;102292.13;5086505;28;20295;-57
2022/12/27 14:00:01;;;;;;;;;;;;;;;6.77;90.47;102292.91;5076193;28;19916;-60
2022/12/27 14:02:32;;;;;;;;;;;;;;;6.69;90.86;102290.00;5074163;28;19927;-58
2022/12/27 14:05:00;;;;;;;;;;;;;;;6.66;90.84;102284.09;5080698;28;19962;-60
2022/12/27 14:07:33;;;;;;;;;;;;;;;6.62;91.24;102277.31;5079100;28;19924;-59
2022/12/27 14:09:59;;;;;;;;;;;;;;;6.56;91.45;102277.75;5070122;28;19920;-59
2022/12/27 14:12:35;;;;;;;;;;;;;;;6.50;91.34;102271.97;5075415;28;19939;-61
2022/12/27 14:15:03;;;;;;;;;;;;;;;6.45;91.52;102267.97;5081715;28;19920;-57
2022/12/27 14:17:37;;;;;;;;;;;;;;;6.43;92.06;102262.81;5075328;28;19924;-57
2022/12/27 14:20:21;;;;;;;;;;;;;;;6.42;92.42;102262.91;5073047;28;19928;-59
2022/12/27 14:22:55;;;;;;;;;;;;;;;6.39;92.44;102261.34;5072377;28;20510;-60
2022/12/27 14:25:32;;;;;;;;;;;;;;;6.40;92.63;102251.63;5077324;28;19922;-58
2022/12/27 14:28:10;;;;;;;;;;;;;;;6.38;92.75;102264.94;5074718;28;19924;-57
2022/12/27 14:30:41;;;;;;;;;;;;;;;6.37;92.85;102268.53;5073027;28;19970;-59